CST,Max TemperatureF,Mean TemperatureF,Min TemperatureF,Max Dew PointF,MeanDew PointF,Min DewpointF,Max Humidity, Mean Humidity, Min Humidity, Max Sea Level PressureIn, Mean Sea Level PressureIn, Min Sea Level PressureIn, Max VisibilityMiles, Mean VisibilityMiles, Min VisibilityMiles, Max Wind SpeedMPH, Mean Wind SpeedMPH, Max Gust SpeedMPH,PrecipitationIn, CloudCover, Events, WindDirDegrees
2012-12-1,63,50,37,58,49,33,100,92,74,29.96,29.85,29.75,10,4,0,14,3,,0.00,5,Fog,217
2012-12-2,57,46,36,50,43,37,100,91,67,30.03,29.92,29.79,10,6,0,13,6,,0.00,1,Fog,184
2012-12-3,61,52,41,59,43,27,99,72,39,30.08,29.81,29.61,10,8,5,25,11,32,0.02,0,,276
2012-12-4,61,47,33,26,23,20,70,43,22,30.30,30.22,30.10,10,10,10,12,3,16,0.00,0,,270
2012-12-5,62,47,32,30,26,21,79,49,20,30.30,30.13,29.95,10,10,10,25,7,33,0.00,0,,177
2012-12-6,50,46,42,34,31,28,67,57,46,29.99,29.92,29.87,10,10,10,22,9,23,0.00,5,Rain,53
2012-12-7,47,39,31,33,29,24,91,66,43,29.97,29.92,29.87,10,10,10,13,4,,0.00,4,Rain,27
2012-12-8,40,32,24,33,29,24,100,82,67,30.01,29.94,29.87,10,8,2,9,1,,0.00,4,,133
2012-12-9,37,26,16,37,21,8,100,75,57,30.11,29.97,29.83,10,8,2,26,9,36,0.04,7,Rain,316
2012-12-10,29,18,6,8,4,1,80,58,33,30.10,30.01,29.93,10,10,10,22,10,30,0.00,2,,276
2012-12-11,45,32,18,21,15,7,72,54,33,30.04,29.99,29.92,10,10,10,17,11,28,0.00,1,,250
2012-12-12,53,40,28,19,16,13,66,43,20,30.06,30.01,29.96,10,10,10,28,15,37,0.00,0,,199
2012-12-13,54,42,30,22,19,13,60,42,28,30.07,30.03,29.99,10,10,10,20,11,24,0.00,0,,202
2012-12-14,55,42,28,43,29,20,95,62,45,30.05,29.87,29.61,10,10,5,20,6,26,0.14,3,Rain-Thunderstorm,168
2012-12-15,48,40,33,46,42,32,99,94,87,29.71,29.56,29.43,10,8,4,18,13,25,0.36,7,Rain,266
2012-12-16,37,34,30,34,31,30,100,92,77,29.81,29.76,29.71,10,5,2,12,2,,0.00,7,,357
2012-12-17,38,30,22,32,28,22,100,96,76,29.79,29.70,29.58,10,5,0,10,1,,0.00,3,Fog-Snow,239
2012-12-18,45,36,28,34,32,28,100,83,64,29.86,29.67,29.47,10,9,5,24,7,30,0.00,0,,278
2012-12-19,38,34,31,34,33,31,100,96,79,29.89,29.78,29.64,10,5,1,31,6,37,0.09,6,Rain-Snow-Thunderstorm,52
2012-12-20,32,25,18,32,19,14,100,84,71,30.21,29.98,29.63,1,1,1,40,26,48,0.01,4,Snow,324
2012-12-21,32,23,14,22,15,8,85,71,56,30.33,30.25,30.16,10,10,10,13,4,,0.00,0,,271
2012-12-22,40,29,18,30,22,15,88,78,64,30.16,30.01,29.90,10,10,7,14,5,,0.00,0,,342
2012-12-23,24,19,14,21,15,10,90,84,74,30.03,29.99,29.95,10,7,5,13,7,16,0.00,0,,5
2012-12-24,20,15,10,16,11,6,98,79,71,30.21,30.10,30.00,10,9,3,20,12,24,0.00,5,Snow,356
2012-12-25,15,10,5,10,5,0,85,75,68,30.43,30.33,30.19,10,10,10,23,15,28,0.00,3,,13
2012-12-26,20,12,4,11,6,1,88,79,64,30.32,30.23,30.15,10,10,10,13,5,,0.00,0,,2
2012-12-27,26,18,10,23,17,7,90,85,78,30.14,30.03,29.94,10,10,2,15,2,21,0.00,7,Snow,119
2012-12-28,26,22,18,24,20,15,100,87,73,30.10,30.00,29.96,10,6,4,17,4,20,0.00,8,Snow,330
2012-12-29,34,22,11,22,15,8,89,77,56,30.24,30.19,30.11,10,9,7,15,7,18,0.00,2,Snow,278
2012-12-30,46,31,16,27,20,14,89,67,40,30.25,30.11,29.99,10,10,10,30,10,38,0.00,0,,213
2012-12-31,29,24,17,21,18,14,97,81,67,30.22,30.15,30.08,10,8,1,18,9,21,0.00,8,Snow,24